Aviation Digital Data Service (ADDS)

Output produced by METARs form (1130 UTC 25 June 2019)
found at http://www.aviationweather.gov/metar/data/
 
Forecast for: ZHCC (ZHENGZHOU , CN)
Text: TAF ZHCC 250901Z 2512/2612 15003MPS 7000 NSC TX35/2607Z TN21/2522Z
Forecast period: 1200 UTC 25 June 2019 to 1200 UTC 26 June 2019
Forecast type: FROM: standard forecast or significant change
Winds: from the SSE (150 degrees) at 7 MPH (6 knots; 3.1 m/s)
Visibility: 4 miles (7 km)
Ceiling: unknown
Clouds: missing
Weather: no significant weather forecast for this period